createdAt,value
2023-02-05T00:01:22.738Z,103215.44
2023-02-05T00:03:49.668Z,103219.81
2023-02-05T00:06:16.243Z,103217.13
2023-02-05T00:08:42.842Z,103214.78
2023-02-05T00:11:09.775Z,103199.50
2023-02-05T00:13:37.972Z,103197.84
2023-02-05T00:16:16.142Z,103200.03
2023-02-05T00:18:43.092Z,103186.19
2023-02-05T00:21:10.602Z,103179.59
2023-02-05T00:23:37.811Z,103181.94
2023-02-05T00:26:05.453Z,103177.88
2023-02-05T00:28:33.301Z,103167.06
2023-02-05T00:31:00.359Z,103170.13
2023-02-05T00:33:26.915Z,103164.72
2023-02-05T00:35:53.468Z,103162.00
2023-02-05T00:38:19.855Z,103161.81
2023-02-05T00:40:46.242Z,103161.97
2023-02-05T00:43:12.576Z,103158.75
2023-02-05T00:45:39.080Z,103165.84
2023-02-05T00:48:05.671Z,103159.94
2023-02-05T00:50:33.734Z,103159.28
2023-02-05T00:53:00.208Z,103157.09
2023-02-05T00:55:26.841Z,103155.91
2023-02-05T00:57:53.280Z,103150.81
2023-02-05T01:00:19.964Z,103149.81
2023-02-05T01:02:46.666Z,103145.94
2023-02-05T01:05:13.248Z,103139.34
2023-02-05T01:07:39.912Z,103126.81
2023-02-05T01:10:06.848Z,103123.59
2023-02-05T01:12:33.431Z,103120.75
2023-02-05T01:15:07.024Z,103133.56
2023-02-05T01:17:33.785Z,103139.34
2023-02-05T01:20:00.294Z,103140.69
2023-02-05T01:22:26.773Z,103134.75
2023-02-05T01:24:53.170Z,103125.47
2023-02-05T01:27:19.561Z,103120.75
2023-02-05T01:29:46.054Z,103119.06
2023-02-05T01:32:12.528Z,103126.50
2023-02-05T01:34:39.096Z,103116.38
2023-02-05T01:37:05.463Z,103108.41
2023-02-05T01:39:31.897Z,103114.50
2023-02-05T01:41:58.567Z,103102.00
2023-02-05T01:44:25.046Z,103101.16
2023-02-05T01:46:53.801Z,103100.16
2023-02-05T01:49:31.586Z,103106.56
2023-02-05T01:52:03.235Z,103114.66
2023-02-05T01:54:31.870Z,103124.16
2023-02-05T01:57:04.841Z,103119.72
2023-02-05T01:59:36.079Z,103113.31
2023-02-05T02:02:06.450Z,103117.38
2023-02-05T02:04:43.606Z,103121.09
2023-02-05T02:07:13.764Z,103119.22
2023-02-05T02:09:42.053Z,103113.34
2023-02-05T02:12:11.035Z,103100.13
2023-02-05T02:14:39.818Z,103096.09
2023-02-05T02:17:07.681Z,103096.09
2023-02-05T02:19:46.196Z,103077.84
2023-02-05T02:22:24.807Z,103078.16
2023-02-05T02:25:04.990Z,103084.41
2023-02-05T02:27:49.505Z,103076.66
2023-02-05T02:30:20.312Z,103066.66
2023-02-05T02:32:54.244Z,103076.28
2023-02-05T02:35:32.513Z,103089.78
2023-02-05T02:38:14.167Z,103089.59
2023-02-05T02:40:45.752Z,103092.31
2023-02-05T02:43:44.198Z,103099.78
2023-02-05T02:46:19.632Z,103100.97
2023-02-05T02:48:47.912Z,103100.44
2023-02-05T02:51:16.564Z,103104.66
2023-02-05T02:53:47.513Z,103098.75
2023-02-05T02:56:15.923Z,103094.03
2023-02-05T02:58:58.600Z,103102.31
2023-02-05T03:01:32.576Z,103102.50
2023-02-05T03:04:05.089Z,103099.09
2023-02-05T03:06:33.460Z,103094.38
2023-02-05T03:09:06.014Z,103102.81
2023-02-05T03:11:32.441Z,103106.53
2023-02-05T03:13:58.919Z,103094.06
2023-02-05T03:16:27.130Z,103098.13
2023-02-05T03:18:55.072Z,103098.94
2023-02-05T03:21:28.296Z,103098.13
2023-02-05T03:23:54.837Z,103082.91
2023-02-05T03:26:29.605Z,103081.06
2023-02-05T03:28:58.632Z,103088.50
2023-02-05T03:31:52.115Z,103079.19
2023-02-05T03:34:45.708Z,103083.25
2023-02-05T03:37:37.987Z,103062.09
2023-02-05T03:40:15.645Z,103071.09
2023-02-05T03:42:55.108Z,103065.00
2023-02-05T03:45:41.105Z,103072.91
2023-02-05T03:48:44.959Z,103067.03
2023-02-05T03:51:29.653Z,103046.03
2023-02-05T03:54:20.797Z,103055.50
2023-02-05T03:56:53.687Z,103052.47
2023-02-05T03:59:21.944Z,103051.44
2023-02-05T04:01:48.905Z,103051.28
2023-02-05T04:04:15.387Z,103044.38
2023-02-05T04:06:42.267Z,103053.47
2023-02-05T04:09:10.956Z,103055.19
2023-02-05T04:11:38.496Z,103052.81
2023-02-05T04:14:05.012Z,103055.84
2023-02-05T04:16:31.506Z,103053.16
2023-02-05T04:18:57.908Z,103063.28
2023-02-05T04:21:24.299Z,103052.13
2023-02-05T04:23:50.789Z,103059.75
2023-02-05T04:26:17.246Z,103053.47
2023-02-05T04:28:43.809Z,103053.16
2023-02-05T04:31:15.356Z,103044.22
2023-02-05T04:33:42.252Z,103054.16
2023-02-05T04:36:09.277Z,103058.41
2023-02-05T04:38:35.674Z,103067.19
2023-02-05T04:41:02.073Z,103071.41
2023-02-05T04:43:28.719Z,103069.53
2023-02-05T04:45:55.239Z,103076.50
2023-02-05T04:48:21.778Z,103070.56
2023-02-05T04:50:48.284Z,103069.72
2023-02-05T04:53:14.758Z,103064.97
2023-02-05T04:55:41.200Z,103061.94
2023-02-05T04:58:07.809Z,103075.44
2023-02-05T05:00:34.197Z,103064.97
2023-02-05T05:03:01.484Z,103070.22
2023-02-05T05:05:28.005Z,103070.72
2023-02-05T05:07:54.441Z,103069.19
2023-02-05T05:10:20.809Z,103066.00
2023-02-05T05:12:47.175Z,103071.56
2023-02-05T05:15:13.675Z,103066.81
2023-02-05T05:17:40.061Z,103072.22
2023-02-05T05:20:06.747Z,103084.56
2023-02-05T05:22:33.629Z,103081.53
2023-02-05T05:25:00.142Z,103062.78
2023-02-05T05:27:26.574Z,103079.31
2023-02-05T05:29:53.068Z,103069.00
2023-02-05T05:32:19.546Z,103073.44
2023-02-05T05:34:45.953Z,103064.47
2023-02-05T05:37:12.446Z,103060.59
2023-02-05T05:39:57.440Z,103064.97
2023-02-05T05:42:42.739Z,103052.47
2023-02-05T05:45:10.563Z,103039.28
2023-02-05T05:47:37.051Z,103037.25
2023-02-05T05:50:03.910Z,103042.00
2023-02-05T05:52:32.380Z,103044.53
2023-02-05T05:54:59.148Z,103043.69
2023-02-05T05:57:26.204Z,103046.03
2023-02-05T05:59:52.653Z,103045.56
2023-02-05T06:02:19.177Z,103044.88
2023-02-05T06:04:45.976Z,103036.94
2023-02-05T06:07:12.399Z,103041.50
2023-02-05T06:09:38.796Z,103041.34
2023-02-05T06:12:05.392Z,103039.31
2023-02-05T06:14:31.939Z,103032.56
2023-02-05T06:16:58.425Z,103031.22
2023-02-05T06:19:25.084Z,103045.03
2023-02-05T06:21:51.573Z,103042.69
2023-02-05T06:24:18.009Z,103043.69
2023-02-05T06:26:44.630Z,103045.88
2023-02-05T06:29:11.102Z,103042.88
2023-02-05T06:31:37.545Z,103043.03
2023-02-05T06:34:04.117Z,103043.38
2023-02-05T06:36:30.515Z,103032.03
2023-02-05T06:38:56.944Z,103033.22
2023-02-05T06:41:23.429Z,103030.00
2023-02-05T06:43:49.892Z,103032.72
2023-02-05T06:46:16.395Z,103042.19
2023-02-05T06:48:42.905Z,103036.94
2023-02-05T06:51:09.309Z,103030.84
2023-02-05T06:53:35.686Z,103029.69
2023-02-05T06:56:02.152Z,103033.22
2023-02-05T06:58:28.592Z,103020.69
2023-02-05T07:00:55.034Z,103026.78
2023-02-05T07:03:21.622Z,103021.88
2023-02-05T07:05:47.957Z,103024.75
2023-02-05T07:08:14.330Z,103021.06
2023-02-05T07:10:40.792Z,103019.72
2023-02-05T07:13:07.218Z,103022.41
2023-02-05T07:15:36.911Z,103022.41
2023-02-05T07:18:05.116Z,103021.88
2023-02-05T07:20:32.230Z,103017.31
2023-02-05T07:22:58.638Z,103014.28
2023-02-05T07:25:25.270Z,103015.63
2023-02-05T07:27:51.684Z,103016.66
2023-02-05T07:30:18.376Z,103009.56
2023-02-05T07:32:44.930Z,103011.59
2023-02-05T07:35:11.329Z,103009.22
2023-02-05T07:37:39.344Z,103005.84
2023-02-05T07:40:06.358Z,103009.22
2023-02-05T07:42:32.711Z,103007.69
2023-02-05T07:44:59.084Z,103007.16
2023-02-05T07:47:25.503Z,103003.09
2023-02-05T07:49:51.883Z,103009.84
2023-02-05T07:52:18.348Z,102998.69
2023-02-05T07:54:44.818Z,103002.06
2023-02-05T07:57:11.241Z,102998.31
2023-02-05T07:59:37.826Z,102996.97
2023-02-05T08:02:04.456Z,103004.56
2023-02-05T08:04:31.096Z,102999.66
2023-02-05T08:06:57.615Z,102993.56
2023-02-05T08:09:24.054Z,102994.28
2023-02-05T08:11:50.444Z,102993.28
2023-02-05T08:14:16.844Z,102992.91
2023-02-05T08:16:43.280Z,102998.31
2023-02-05T08:19:15.626Z,102994.59
2023-02-05T08:21:43.250Z,102996.66
2023-02-05T08:24:10.445Z,103004.75
2023-02-05T08:26:36.874Z,102993.56
2023-02-05T08:29:03.491Z,103001.38
2023-02-05T08:31:30.025Z,102996.31
2023-02-05T08:33:57.770Z,102996.16
2023-02-05T08:36:24.340Z,102993.59
2023-02-05T08:38:50.717Z,102999.72
2023-02-05T08:41:17.636Z,102997.16
2023-02-05T08:43:47.107Z,102994.31
2023-02-05T08:46:15.390Z,102993.09
2023-02-05T08:48:42.175Z,102987.19
2023-02-05T08:51:13.129Z,102980.59
2023-02-05T08:53:40.506Z,102969.94
2023-02-05T08:56:10.508Z,102974.63
2023-02-05T08:58:38.568Z,102970.94
2023-02-05T09:01:08.833Z,102969.94
2023-02-05T09:03:35.390Z,102970.28
2023-02-05T09:06:05.852Z,102967.88
2023-02-05T09:08:32.396Z,102956.06
2023-02-05T09:10:58.782Z,102962.16
2023-02-05T09:13:25.860Z,102963.47
2023-02-05T09:15:52.396Z,102969.88
2023-02-05T09:18:18.924Z,102973.63
2023-02-05T09:20:47.987Z,102981.78
2023-02-05T09:23:16.676Z,102967.09
2023-02-05T09:25:43.354Z,102988.56
2023-02-05T09:28:11.965Z,102972.72
2023-02-05T09:30:41.010Z,102986.22
2023-02-05T09:33:08.665Z,102993.00
2023-02-05T09:35:36.070Z,102989.78
2023-02-05T09:38:03.406Z,103005.50
2023-02-05T09:40:35.927Z,103006.50
2023-02-05T09:43:21.483Z,103020.69
2023-02-05T09:46:03.134Z,103029.47
2023-02-05T09:48:49.694Z,103024.59
2023-02-05T09:51:19.247Z,103029.34
2023-02-05T09:53:52.839Z,103037.28
2023-02-05T09:56:20.048Z,103036.25
2023-02-05T09:58:49.733Z,103031.50
2023-02-05T10:01:39.251Z,103033.53
2023-02-05T10:04:08.846Z,103030.34
2023-02-05T10:07:04.753Z,103037.59
2023-02-05T10:09:59.813Z,103038.28
2023-02-05T10:13:08.492Z,103045.72
2023-02-05T10:15:53.489Z,103046.41
2023-02-05T10:18:49.243Z,103038.81
2023-02-05T10:21:58.414Z,103045.56
2023-02-05T10:24:42.136Z,103039.97
2023-02-05T10:27:24.870Z,103041.66
2023-02-05T10:30:24.705Z,103033.41
2023-02-05T10:33:00.212Z,103040.31
2023-02-05T10:35:37.108Z,103043.38
2023-02-05T10:38:13.537Z,103041.34
2023-02-05T10:40:46.605Z,103045.41
2023-02-05T10:43:15.972Z,103047.75
2023-02-05T10:45:42.441Z,103043.53
2023-02-05T10:48:33.303Z,103049.25
2023-02-05T10:51:13.974Z,103041.00
2023-02-05T10:53:40.994Z,103037.28
2023-02-05T10:56:08.978Z,103052.31
2023-02-05T10:58:51.765Z,103036.94
2023-02-05T11:01:25.155Z,103044.38
2023-02-05T11:04:09.887Z,103035.59
2023-02-05T11:06:49.298Z,103037.44
2023-02-05T11:09:24.617Z,103036.25
2023-02-05T11:11:56.672Z,103034.59
2023-02-05T11:14:31.912Z,103035.59
2023-02-05T11:17:07.454Z,103034.91
2023-02-05T11:19:34.043Z,103037.44
2023-02-05T11:22:03.474Z,103038.81
2023-02-05T11:24:41.351Z,103036.63
2023-02-05T11:27:26.944Z,103036.25
2023-02-05T11:29:55.658Z,103022.44
2023-02-05T11:32:32.536Z,103026.97
2023-02-05T11:35:16.259Z,103024.09
2023-02-05T11:37:43.263Z,103019.72
2023-02-05T11:40:21.535Z,103012.09
2023-02-05T11:42:55.595Z,103017.69
2023-02-05T11:45:23.167Z,103017.34
2023-02-05T11:47:49.580Z,103012.97
2023-02-05T11:50:24.604Z,103011.59
2023-02-05T11:52:52.732Z,103007.34
2023-02-05T11:55:31.948Z,103012.28
2023-02-05T11:58:31.390Z,103010.41
2023-02-05T12:01:05.751Z,103008.22
2023-02-05T12:03:34.508Z,103001.78
2023-02-05T12:06:28.916Z,103006.88
2023-02-05T12:08:55.611Z,103004.84
2023-02-05T12:14:39.787Z,103022.91
2023-02-05T12:17:18.307Z,103014.63
2023-02-05T12:20:26.469Z,103017.84
2023-02-05T12:23:06.898Z,103014.63
2023-02-05T12:25:55.098Z,103015.97
2023-02-05T12:28:36.861Z,103010.25
2023-02-05T12:31:27.236Z,103012.44
2023-02-05T12:34:16.813Z,102998.41
2023-02-05T12:37:01.863Z,103004.19
2023-02-05T12:39:53.441Z,103007.19
2023-02-05T12:42:32.336Z,103009.91
2023-02-05T12:45:17.626Z,103003.66
2023-02-05T12:47:57.099Z,103016.16
2023-02-05T12:50:35.468Z,103010.94
2023-02-05T12:53:12.265Z,103010.25
2023-02-05T12:56:21.252Z,103012.28
2023-02-05T12:58:57.261Z,103023.59
2023-02-05T13:01:53.240Z,103004.19
2023-02-05T13:04:36.305Z,102997.41
2023-02-05T13:07:14.936Z,103010.91
2023-02-05T13:09:49.863Z,103001.13
2023-02-05T13:12:20.122Z,103009.41
2023-02-05T13:15:02.642Z,102996.25
2023-02-05T13:17:34.105Z,102993.34
2023-02-05T13:20:04.277Z,102994.03
2023-02-05T13:22:56.298Z,102991.50
2023-02-05T13:25:54.597Z,103000.78
2023-02-05T13:28:42.964Z,102996.72
2023-02-05T13:31:15.249Z,102993.19
2023-02-05T13:33:43.543Z,102996.72
2023-02-05T13:36:29.950Z,103006.53
2023-02-05T13:39:41.220Z,103013.63
2023-02-05T13:42:45.048Z,103013.97
2023-02-05T13:45:23.676Z,103021.41
2023-02-05T13:47:53.073Z,103019.38
2023-02-05T13:50:47.407Z,103034.25
2023-02-05T13:53:43.955Z,103033.22
2023-02-05T13:56:31.973Z,103039.63
2023-02-05T13:59:02.670Z,103052.13
2023-02-05T14:01:36.115Z,103058.88
2023-02-05T14:04:07.781Z,103052.13
2023-02-05T14:06:39.750Z,103067.50
2023-02-05T14:09:23.563Z,103086.41
2023-02-05T14:11:57.025Z,103084.69
2023-02-05T14:14:35.626Z,103084.38
2023-02-05T14:17:33.171Z,103095.84
2023-02-05T14:20:01.202Z,103091.94
2023-02-05T14:22:42.103Z,103099.38
2023-02-05T14:25:38.235Z,103105.78
2023-02-05T14:28:16.842Z,103114.00
2023-02-05T14:30:52.088Z,103112.88
2023-02-05T14:33:27.722Z,103115.34
2023-02-05T14:36:15.009Z,103130.88
2023-02-05T14:39:03.931Z,103128.66
2023-02-05T14:41:39.642Z,103120.19
2023-02-05T14:44:17.790Z,103139.13
2023-02-05T14:47:13.675Z,103137.44
2023-02-05T14:49:43.745Z,103146.41
2023-02-05T14:52:16.112Z,103152.28
2023-02-05T14:54:47.587Z,103152.28
2023-02-05T14:57:26.582Z,103158.53
2023-02-05T14:59:58.786Z,103160.13
2023-02-05T15:02:49.757Z,103162.13
2023-02-05T15:05:22.068Z,103174.31
2023-02-05T15:07:52.986Z,103176.31
2023-02-05T15:10:27.142Z,103174.44
2023-02-05T15:13:12.510Z,103179.31
2023-02-05T15:15:39.127Z,103181.72
2023-02-05T15:18:23.998Z,103178.69
2023-02-05T15:20:53.233Z,103171.22
2023-02-05T15:23:23.463Z,103166.78
2023-02-05T15:25:58.140Z,103179.59
2023-02-05T15:28:32.334Z,103182.31
2023-02-05T15:31:08.385Z,103176.22
2023-02-05T15:34:00.309Z,103184.00
2023-02-05T15:36:52.396Z,103185.72
2023-02-05T15:39:30.245Z,103185.09
2023-02-05T15:42:00.123Z,103194.19
2023-02-05T15:44:35.164Z,103200.81
2023-02-05T15:47:05.308Z,103214.16
2023-02-05T15:49:37.460Z,103201.31
2023-02-05T15:52:05.680Z,103215.00
2023-02-05T15:54:35.522Z,103228.53
2023-02-05T15:57:05.324Z,103223.63
2023-02-05T15:59:33.180Z,103230.72
2023-02-05T16:02:04.059Z,103242.22
2023-02-05T16:04:30.523Z,103244.22
2023-02-05T16:06:57.735Z,103245.91
2023-02-05T16:09:26.500Z,103249.81
2023-02-05T16:11:53.141Z,103247.91
2023-02-05T16:14:22.585Z,103244.56
2023-02-05T16:17:02.440Z,103256.06
2023-02-05T16:19:35.024Z,103255.41
2023-02-05T16:22:22.748Z,103265.38
2023-02-05T16:24:52.720Z,103280.22
2023-02-05T16:27:35.948Z,103298.00
2023-02-05T16:30:07.960Z,103291.75
2023-02-05T16:32:43.990Z,103301.19
2023-02-05T16:35:27.816Z,103305.41
2023-02-05T16:37:55.165Z,103304.38
2023-02-05T16:40:32.854Z,103296.28
2023-02-05T16:42:59.629Z,103301.06
2023-02-05T16:45:28.360Z,103306.63
2023-02-05T16:48:18.744Z,103307.63
2023-02-05T16:50:45.122Z,103315.03
2023-02-05T16:53:21.048Z,103299.34
2023-02-05T16:55:48.787Z,103311.53
2023-02-05T16:58:23.105Z,103315.09
2023-02-05T17:01:07.892Z,103323.72
2023-02-05T17:03:38.698Z,103318.97
2023-02-05T17:06:12.894Z,103315.03
2023-02-05T17:08:40.327Z,103321.63
2023-02-05T17:11:27.867Z,103329.25
2023-02-05T17:14:28.448Z,103334.44
2023-02-05T17:17:00.857Z,103335.97
2023-02-05T17:19:29.779Z,103338.53
2023-02-05T17:22:14.484Z,103344.31
2023-02-05T17:24:44.268Z,103349.06
2023-02-05T17:27:17.307Z,103349.53
2023-02-05T17:29:44.166Z,103354.25
2023-02-05T17:32:16.881Z,103361.56
2023-02-05T17:34:46.903Z,103365.28
2023-02-05T17:37:14.299Z,103362.44
2023-02-05T17:39:41.312Z,103370.88
2023-02-05T17:42:19.768Z,103379.91
2023-02-05T17:44:46.163Z,103381.59
2023-02-05T17:47:12.981Z,103381.59
2023-02-05T17:49:39.971Z,103376.50
2023-02-05T17:52:06.391Z,103389.00
2023-02-05T17:54:32.801Z,103392.72
2023-02-05T17:57:14.103Z,103397.81
2023-02-05T17:59:42.933Z,103390.19
2023-02-05T18:02:09.577Z,103387.38
2023-02-05T18:04:36.053Z,103395.78
2023-02-05T18:07:02.620Z,103396.13
2023-02-05T18:09:29.088Z,103398.13
2023-02-05T18:11:55.543Z,103401.19
2023-02-05T18:14:22.075Z,103401.19
2023-02-05T18:16:48.589Z,103401.19
2023-02-05T18:19:15.116Z,103402.03
2023-02-05T18:21:41.674Z,103403.38
2023-02-05T18:24:08.204Z,103405.22
2023-02-05T18:26:34.741Z,103403.22
2023-02-05T18:29:01.216Z,103394.72
2023-02-05T18:31:28.014Z,103404.53
2023-02-05T18:33:54.439Z,103407.88
2023-02-05T18:36:21.285Z,103398.06
2023-02-05T18:38:47.968Z,103399.09
2023-02-05T18:41:17.271Z,103402.16
2023-02-05T18:43:44.220Z,103400.09
2023-02-05T18:46:16.031Z,103398.41
2023-02-05T18:48:45.605Z,103402.78
2023-02-05T18:51:15.405Z,103407.16
2023-02-05T18:53:43.176Z,103409.16
2023-02-05T18:56:14.000Z,103406.13
2023-02-05T18:58:41.751Z,103408.28
2023-02-05T19:01:12.809Z,103404.06
2023-02-05T19:03:41.310Z,103409.63
2023-02-05T19:06:17.365Z,103420.56
2023-02-05T19:08:44.056Z,103423.13
2023-02-05T19:11:15.996Z,103427.75
2023-02-05T19:13:42.628Z,103421.09
2023-02-05T19:16:15.071Z,103422.28
2023-02-05T19:18:43.901Z,103430.78
2023-02-05T19:21:13.837Z,103436.47
2023-02-05T19:23:41.268Z,103434.47
2023-02-05T19:26:14.327Z,103437.03
2023-02-05T19:28:41.635Z,103442.28
2023-02-05T19:31:11.483Z,103449.69
2023-02-05T19:33:38.475Z,103450.38
2023-02-05T19:36:07.402Z,103453.09
2023-02-05T19:38:41.268Z,103458.63
2023-02-05T19:41:09.829Z,103462.66
2023-02-05T19:43:36.378Z,103464.19
2023-02-05T19:46:04.751Z,103466.91
2023-02-05T19:48:31.433Z,103474.84
2023-02-05T19:51:09.127Z,103471.47
2023-02-05T19:53:37.867Z,103472.31
2023-02-05T19:56:07.131Z,103468.22
2023-02-05T19:58:34.702Z,103467.22
2023-02-05T20:01:01.258Z,103469.06
2023-02-05T20:03:28.849Z,103469.94
2023-02-05T20:05:55.209Z,103467.22
2023-02-05T20:08:21.667Z,103472.94
2023-02-05T20:10:57.198Z,103477.16
2023-02-05T20:13:27.793Z,103475.78
2023-02-05T20:15:54.559Z,103474.94
2023-02-05T20:18:21.869Z,103471.47
2023-02-05T20:20:48.807Z,103468.44
2023-02-05T20:23:15.391Z,103461.50
2023-02-05T20:25:41.757Z,103473.31
2023-02-05T20:28:08.336Z,103462.84
2023-02-05T20:30:53.301Z,103466.31
2023-02-05T20:33:19.890Z,103477.81
2023-02-05T20:35:46.196Z,103487.63
2023-02-05T20:38:12.561Z,103492.47
2023-02-05T20:40:39.040Z,103496.72
2023-02-05T20:43:09.062Z,103488.00
2023-02-05T20:45:35.466Z,103488.59
2023-02-05T20:48:02.057Z,103491.31
2023-02-05T20:50:28.476Z,103492.34
2023-02-05T20:52:54.783Z,103489.63
2023-02-05T20:55:21.184Z,103495.31
2023-02-05T20:57:47.537Z,103494.94
2023-02-05T21:00:14.667Z,103498.94
2023-02-05T21:02:41.147Z,103495.00
2023-02-05T21:05:07.750Z,103495.47
2023-02-05T21:07:34.938Z,103492.69
2023-02-05T21:10:02.522Z,103488.06
2023-02-05T21:12:31.050Z,103496.00
2023-02-05T21:14:57.636Z,103497.69
2023-02-05T21:17:23.992Z,103503.97
2023-02-05T21:19:50.368Z,103510.75
2023-02-05T21:22:16.810Z,103509.81
2023-02-05T21:24:43.352Z,103524.47
2023-02-05T21:27:09.751Z,103523.34
2023-02-05T21:29:36.144Z,103527.13
2023-02-05T21:32:02.792Z,103530.66
2023-02-05T21:34:29.701Z,103531.69
2023-02-05T21:36:56.516Z,103534.81
2023-02-05T21:39:23.528Z,103537.97
2023-02-05T21:41:53.918Z,103550.88
2023-02-05T21:44:20.414Z,103541.19
2023-02-05T21:46:46.906Z,103535.50
2023-02-05T21:49:13.549Z,103541.59
2023-02-05T21:51:42.246Z,103545.03
2023-02-05T21:54:09.884Z,103549.88
2023-02-05T21:56:43.266Z,103551.56
2023-02-05T21:59:11.320Z,103553.66
2023-02-05T22:01:38.247Z,103559.75
2023-02-05T22:04:16.642Z,103548.97
2023-02-05T22:06:43.445Z,103563.16
2023-02-05T22:09:12.425Z,103565.16
2023-02-05T22:11:42.623Z,103554.25
2023-02-05T22:14:09.704Z,103571.56
2023-02-05T22:16:37.149Z,103553.22
2023-02-05T22:19:04.915Z,103572.81
2023-02-05T22:21:37.449Z,103564.31
2023-02-05T22:24:05.477Z,103572.56
2023-02-05T22:26:35.906Z,103564.31
2023-02-05T22:29:05.313Z,103559.75
2023-02-05T22:31:32.609Z,103567.47
2023-02-05T22:33:59.532Z,103570.72
2023-02-05T22:36:28.469Z,103568.88
2023-02-05T22:38:55.635Z,103573.13
2023-02-05T22:41:25.062Z,103570.56
2023-02-05T22:43:53.228Z,103573.22
2023-02-05T22:46:23.089Z,103577.66
2023-02-05T22:48:50.931Z,103584.50
2023-02-05T22:51:23.416Z,103576.56
2023-02-05T22:53:51.580Z,103573.75
2023-02-05T22:56:18.699Z,103572.06
2023-02-05T22:58:46.802Z,103570.63
2023-02-05T23:01:16.087Z,103572.13
2023-02-05T23:03:43.357Z,103573.94
2023-02-05T23:06:12.484Z,103573.53
2023-02-05T23:08:38.898Z,103573.97
2023-02-05T23:11:11.205Z,103576.41
2023-02-05T23:13:37.663Z,103578.16
2023-02-05T23:16:32.531Z,103580.69
2023-02-05T23:19:02.860Z,103588.50
2023-02-05T23:21:31.970Z,103595.91
2023-02-05T23:23:58.576Z,103599.59
2023-02-05T23:26:28.002Z,103610.81
2023-02-05T23:28:55.569Z,103605.72
2023-02-05T23:31:23.961Z,103598.34
2023-02-05T23:33:51.058Z,103609.00
2023-02-05T23:36:18.067Z,103617.34
2023-02-05T23:38:44.582Z,103615.94
2023-02-05T23:41:12.169Z,103616.78
2023-02-05T23:43:39.060Z,103615.09
2023-02-05T23:46:07.095Z,103608.56
2023-02-05T23:48:34.200Z,103604.44
2023-02-05T23:51:01.034Z,103606.16
2023-02-05T23:53:27.592Z,103603.47
2023-02-05T23:55:55.648Z,103614.34
2023-02-05T23:58:27.788Z,103632.50
